Rotterdam, Netherlands

1:10 PM CEST on September 19, 2014 (GMT +0200)
Rotterdam | Change Station
CLOSE
Current Station
Airport
Location: Rotterdam,
Elevation: -16 ft
Nearby Weather Stations

Elev -16 ft 51.95 °N, 4.44 °E | Updated 15 minutes ago

Overcast
Overcast
66 °F
Feels Like 66 °F
N
2
Wind Variable Wind from Variable

Today
High -- | Low -- °F
--% Chance of Precip.
Yesterday
High -- | Low -- °F
Precip. -- in
7:23 AM 7:48 PM
Waning Crescent, 20% visible
Pressure 29.86 in
Visibility -9999.0 miles
Clouds Overcast 600 ft
Dew Point 63 °F
Humidity 88%
Rainfall 0.00 in
Snow Depth Not available.
UV 1 out of 12
Pollen Not available.
Air Quality Not available.
Flu Activity Not available.
METAR EHRD 191055Z AUTO VRB02KT 4900 BR OVC006 19/17 Q1011 BECMG 6000 NSW BKN010

More Conditions Fewer Conditions

Pressure 29.86 in
Visibility -9999.0 miles
Clouds Overcast 600 ft
Dew Point 63 °F
Humidity 88%
Rainfall 0.00 in
Snow Depth Not available.
UV 1 out of 12
Pollen Not available.
Air Quality Not available.
Flu Activity Not available.
METAR EHRD 191055Z AUTO VRB02KT 4900 BR OVC006 19/17 Q1011 BECMG 6000 NSW BKN010

More Conditions Fewer Conditions

10-Day Weather Forecast

Almanac

Astronomy

Sep. 19, 2014 Rise Set
Actual Time 7:23 AM CEST 7:48 PM CEST
Civil Twilight 6:49 AM CEST 8:21 PM CEST
Nautical Twilight 6:08 AM CEST 9:01 PM CEST
Astronomical Twilight 5:26 AM CEST 9:43 PM CEST
Moon 2:28 AM CEST 5:30 PM CEST
Length of Visible Light 13h 32m
Length of Day
12h 25m
Tomorrow will be 3m 59s shorter.
Waning Crescent, 20% of the Moon is Illuminated
Today
Waning Crescent
Sep 24
New
Oct 1
First Quarter
Oct 8
Full
Oct 15
Last Quarter

Yesterday's Extremes

Country Highs Country Lows

Community

WunderPhotos

Upload Photos

1,754,592 photos uploaded!

WunderBlogs® & News

Nearby

Snow Depth

Not available.

Earthquake Activity

City Distance Mag. Time & Date
No recent earthquake activity has been reported nearby.
Minimum magnitude displayed is 2.5.

Coastal Water Temperatures

Place Temperature
No Stations Reporting

Nearby Weather Stations